Terminal Aerodrome Forecast
Issued by NWS

Home | Current Version | Previous Version | Text Only | Print | Product List | Glossary On
Versions: 1 2 3 4 5 6 7 8 9 10 11 12 13 14 15 16 17 18 19 20 21 22 23 24 25 26 27 28 29
000
FTUS43 KPAH 172300
TAFOWB
TAF
KOWB 172320Z 1800/1824 VRB02KT P6SM SCT100 OVC250
     FM180600 00000KT P6SM SCT050 OVC090
     FM180900 VRB02KT P6SM SCT025 OVC050 PROB30 1810/1814 4SM
      -FZRASNPL
     FM181400 VRB03KT 5SM BR SCT010 OVC025 PROB30 1814/1818 3SM -SN
      BKN010=

USA.gov is the U.S. government's official web portal to all federal, state and local government web resources and services.